sensor_id;sensor_type;location;lat;lon;timestamp;P1;durP1;ratioP1;P2;durP2;ratioP2
37877;SDS011;23715;53.652;8.516;2022-07-29T09:15:08;11.83;;;10.55;;
37877;SDS011;23715;53.652;8.516;2022-07-29T09:30:13;13.40;;;12.30;;
37877;SDS011;23715;53.652;8.516;2022-07-29T09:35:23;14.58;;;13.03;;
37877;SDS011;23715;53.652;8.516;2022-07-29T09:40:27;16.00;;;14.38;;
37877;SDS011;23715;53.652;8.516;2022-07-29T09:45:28;15.58;;;14.25;;
37877;SDS011;23715;53.652;8.516;2022-07-29T09:50:37;14.65;;;13.45;;
37877;SDS011;23715;53.652;8.516;2022-07-29T09:55:48;25.12;;;15.00;;
37877;SDS011;23715;53.652;8.516;2022-07-29T10:00:52;15.32;;;13.75;;
37877;SDS011;23715;53.652;8.516;2022-07-29T10:06:09;14.30;;;13.30;;
37877;SDS011;23715;53.652;8.516;2022-07-29T10:11:17;14.28;;;13.20;;
37877;SDS011;23715;53.652;8.516;2022-07-29T10:16:15;14.07;;;12.90;;
37877;SDS011;23715;53.652;8.516;2022-07-29T10:21:16;13.47;;;12.33;;
37877;SDS011;23715;53.652;8.516;2022-07-29T10:26:17;11.40;;;10.18;;
37877;SDS011;23715;53.652;8.516;2022-07-29T10:31:22;14.00;;;11.00;;
37877;SDS011;23715;53.652;8.516;2022-07-29T10:36:38;12.33;;;11.17;;
37877;SDS011;23715;53.652;8.516;2022-07-29T10:47:22;12.00;;;10.90;;
37877;SDS011;23715;53.652;8.516;2022-07-29T10:52:24;11.25;;;10.20;;
37877;SDS011;23715;53.652;8.516;2022-07-29T10:57:27;12.75;;;11.60;;
37877;SDS011;23715;53.652;8.516;2022-07-29T11:07:40;12.58;;;11.57;;
37877;SDS011;23715;53.652;8.516;2022-07-29T11:22:59;14.20;;;10.75;;
37877;SDS011;23715;53.652;8.516;2022-07-29T11:28:08;11.90;;;10.90;;
37877;SDS011;23715;53.652;8.516;2022-07-29T11:33:26;12.60;;;11.43;;
37877;SDS011;23715;53.652;8.516;2022-07-29T11:48:56;13.35;;;12.03;;
37877;SDS011;23715;53.652;8.516;2022-07-29T11:53:57;11.95;;;11.15;;
37877;SDS011;23715;53.652;8.516;2022-07-29T11:59:05;13.62;;;12.25;;
37877;SDS011;23715;53.652;8.516;2022-07-29T12:04:08;12.53;;;11.43;;
37877;SDS011;23715;53.652;8.516;2022-07-29T12:09:09;14.27;;;13.00;;
37877;SDS011;23715;53.652;8.516;2022-07-29T12:14:09;13.22;;;12.13;;
37877;SDS011;23715;53.652;8.516;2022-07-29T12:19:29;13.97;;;13.00;;
37877;SDS011;23715;53.652;8.516;2022-07-29T12:24:43;12.35;;;11.50;;
37877;SDS011;23715;53.652;8.516;2022-07-29T12:29:45;12.75;;;11.65;;
37877;SDS011;23715;53.652;8.516;2022-07-29T12:35:00;12.43;;;11.33;;
37877;SDS011;23715;53.652;8.516;2022-07-29T12:40:03;13.33;;;12.37;;
37877;SDS011;23715;53.652;8.516;2022-07-29T12:45:06;13.30;;;12.03;;
37877;SDS011;23715;53.652;8.516;2022-07-29T12:50:11;13.03;;;11.93;;
37877;SDS011;23715;53.652;8.516;2022-07-29T12:55:31;11.30;;;10.60;;
37877;SDS011;23715;53.652;8.516;2022-07-29T13:00:23;12.55;;;11.00;;
37877;SDS011;23715;53.652;8.516;2022-07-29T13:05:24;13.50;;;12.50;;
37877;SDS011;23715;53.652;8.516;2022-07-29T13:10:26;11.50;;;10.58;;
37877;SDS011;23715;53.652;8.516;2022-07-29T13:15:27;12.98;;;11.65;;
37877;SDS011;23715;53.652;8.516;2022-07-29T13:20:28;11.05;;;10.25;;
37877;SDS011;23715;53.652;8.516;2022-07-29T13:25:31;12.20;;;11.05;;
37877;SDS011;23715;53.652;8.516;2022-07-29T13:30:32;11.75;;;10.72;;
37877;SDS011;23715;53.652;8.516;2022-07-29T13:35:33;12.10;;;11.20;;
37877;SDS011;23715;53.652;8.516;2022-07-29T13:40:33;11.33;;;10.50;;
37877;SDS011;23715;53.652;8.516;2022-07-29T13:45:34;10.90;;;9.83;;
37877;SDS011;23715;53.652;8.516;2022-07-29T13:50:35;11.20;;;10.30;;
37877;SDS011;23715;53.652;8.516;2022-07-29T13:55:35;13.03;;;11.00;;
37877;SDS011;23715;53.652;8.516;2022-07-29T14:05:35;11.80;;;10.08;;
37877;SDS011;23715;53.652;8.516;2022-07-29T14:10:36;12.50;;;10.40;;
37877;SDS011;23715;53.652;8.516;2022-07-29T14:15:36;11.00;;;10.03;;
37877;SDS011;23715;53.652;8.516;2022-07-29T14:20:37;10.55;;;9.65;;
37877;SDS011;23715;53.652;8.516;2022-07-29T14:25:38;11.55;;;10.10;;
37877;SDS011;23715;53.652;8.516;2022-07-29T14:30:38;11.08;;;10.03;;
37877;SDS011;23715;53.652;8.516;2022-07-29T14:35:39;10.83;;;9.43;;
37877;SDS011;23715;53.652;8.516;2022-07-29T14:40:40;10.70;;;10.00;;
37877;SDS011;23715;53.652;8.516;2022-07-29T14:45:41;11.68;;;10.03;;
37877;SDS011;23715;53.652;8.516;2022-07-29T14:50:42;9.70;;;9.10;;
37877;SDS011;23715;53.652;8.516;2022-07-29T14:55:42;10.20;;;9.48;;
37877;SDS011;23715;53.652;8.516;2022-07-29T15:00:44;10.20;;;9.15;;
37877;SDS011;23715;53.652;8.516;2022-07-29T15:05:44;11.10;;;9.90;;
37877;SDS011;23715;53.652;8.516;2022-07-29T15:15:44;8.53;;;7.87;;
37877;SDS011;23715;53.652;8.516;2022-07-29T15:20:44;8.85;;;8.15;;
37877;SDS011;23715;53.652;8.516;2022-07-29T15:25:45;8.43;;;7.72;;
37877;SDS011;23715;53.652;8.516;2022-07-29T15:30:46;9.88;;;8.95;;
37877;SDS011;23715;53.652;8.516;2022-07-29T15:35:46;9.25;;;8.45;;
37877;SDS011;23715;53.652;8.516;2022-07-29T15:40:47;9.60;;;8.90;;
37877;SDS011;23715;53.652;8.516;2022-07-29T15:45:48;9.77;;;8.90;;
37877;SDS011;23715;53.652;8.516;2022-07-29T15:51:06;10.32;;;9.45;;
37877;SDS011;23715;53.652;8.516;2022-07-29T15:56:07;10.20;;;9.45;;
37877;SDS011;23715;53.652;8.516;2022-07-29T16:06:07;10.48;;;9.85;;
37877;SDS011;23715;53.652;8.516;2022-07-29T16:11:08;10.80;;;9.63;;
37877;SDS011;23715;53.652;8.516;2022-07-29T16:16:08;9.33;;;8.80;;
37877;SDS011;23715;53.652;8.516;2022-07-29T16:21:09;10.15;;;9.25;;
37877;SDS011;23715;53.652;8.516;2022-07-29T16:26:10;10.82;;;9.85;;
37877;SDS011;23715;53.652;8.516;2022-07-29T16:31:10;10.75;;;9.83;;
37877;SDS011;23715;53.652;8.516;2022-07-29T16:36:12;11.38;;;10.50;;
37877;SDS011;23715;53.652;8.516;2022-07-29T16:41:12;10.65;;;9.95;;
37877;SDS011;23715;53.652;8.516;2022-07-29T16:46:13;12.58;;;11.38;;
37877;SDS011;23715;53.652;8.516;2022-07-29T16:51:13;30.32;;;10.30;;
37877;SDS011;23715;53.652;8.516;2022-07-29T16:56:14;11.15;;;10.45;;
37877;SDS011;23715;53.652;8.516;2022-07-29T17:01:15;11.10;;;10.13;;
37877;SDS011;23715;53.652;8.516;2022-07-29T17:06:15;11.05;;;10.35;;
37877;SDS011;23715;53.652;8.516;2022-07-29T17:11:16;20.17;;;11.28;;
37877;SDS011;23715;53.652;8.516;2022-07-29T17:16:16;9.65;;;8.88;;
37877;SDS011;23715;53.652;8.516;2022-07-29T17:21:19;10.85;;;9.83;;
37877;SDS011;23715;53.652;8.516;2022-07-29T17:26:20;11.08;;;10.38;;
37877;SDS011;23715;53.652;8.516;2022-07-29T17:31:20;11.28;;;10.05;;
37877;SDS011;23715;53.652;8.516;2022-07-29T17:36:21;11.28;;;10.38;;
37877;SDS011;23715;53.652;8.516;2022-07-29T17:41:22;10.65;;;9.83;;
37877;SDS011;23715;53.652;8.516;2022-07-29T17:46:24;11.65;;;10.43;;
37877;SDS011;23715;53.652;8.516;2022-07-29T17:51:26;11.40;;;10.50;;
37877;SDS011;23715;53.652;8.516;2022-07-29T17:56:27;10.45;;;9.75;;
37877;SDS011;23715;53.652;8.516;2022-07-29T18:01:27;10.87;;;10.03;;
37877;SDS011;23715;53.652;8.516;2022-07-29T18:06:28;11.38;;;10.48;;
37877;SDS011;23715;53.652;8.516;2022-07-29T18:11:28;11.57;;;10.55;;
37877;SDS011;23715;53.652;8.516;2022-07-29T18:16:29;11.55;;;10.70;;
37877;SDS011;23715;53.652;8.516;2022-07-29T18:21:30;10.28;;;9.58;;
37877;SDS011;23715;53.652;8.516;2022-07-29T18:31:30;10.53;;;9.45;;
37877;SDS011;23715;53.652;8.516;2022-07-29T18:36:31;9.98;;;9.13;;
37877;SDS011;23715;53.652;8.516;2022-07-29T18:41:31;11.75;;;9.18;;
37877;SDS011;23715;53.652;8.516;2022-07-29T18:46:31;10.08;;;9.18;;
37877;SDS011;23715;53.652;8.516;2022-07-29T18:51:32;10.07;;;9.27;;
37877;SDS011;23715;53.652;8.516;2022-07-29T18:56:32;10.05;;;9.18;;
37877;SDS011;23715;53.652;8.516;2022-07-29T19:01:33;10.85;;;9.75;;
37877;SDS011;23715;53.652;8.516;2022-07-29T19:06:35;14.23;;;9.63;;
37877;SDS011;23715;53.652;8.516;2022-07-29T19:11:37;11.88;;;9.43;;
37877;SDS011;23715;53.652;8.516;2022-07-29T19:16:38;13.83;;;8.90;;
37877;SDS011;23715;53.652;8.516;2022-07-29T19:21:40;13.25;;;9.83;;
37877;SDS011;23715;53.652;8.516;2022-07-29T19:26:40;9.18;;;8.40;;
37877;SDS011;23715;53.652;8.516;2022-07-29T19:31:42;9.18;;;8.28;;
37877;SDS011;23715;53.652;8.516;2022-07-29T19:36:43;10.03;;;8.90;;
37877;SDS011;23715;53.652;8.516;2022-07-29T19:41:44;9.70;;;8.80;;
37877;SDS011;23715;53.652;8.516;2022-07-29T19:46:45;9.73;;;8.90;;
37877;SDS011;23715;53.652;8.516;2022-07-29T19:51:45;9.65;;;8.83;;
37877;SDS011;23715;53.652;8.516;2022-07-29T20:01:45;10.00;;;8.58;;
37877;SDS011;23715;53.652;8.516;2022-07-29T20:06:45;8.65;;;7.92;;
37877;SDS011;23715;53.652;8.516;2022-07-29T20:11:46;8.30;;;7.50;;
37877;SDS011;23715;53.652;8.516;2022-07-29T20:16:47;8.97;;;7.83;;
37877;SDS011;23715;53.652;8.516;2022-07-29T20:21:48;9.73;;;8.75;;
37877;SDS011;23715;53.652;8.516;2022-07-29T20:31:48;12.50;;;11.38;;
37877;SDS011;23715;53.652;8.516;2022-07-29T20:36:49;17.00;;;11.03;;
37877;SDS011;23715;53.652;8.516;2022-07-29T20:41:49;12.50;;;11.30;;
37877;SDS011;23715;53.652;8.516;2022-07-29T20:46:50;12.60;;;11.40;;
37877;SDS011;23715;53.652;8.516;2022-07-29T20:51:50;13.38;;;12.13;;
37877;SDS011;23715;53.652;8.516;2022-07-29T21:01:50;14.35;;;12.80;;
37877;SDS011;23715;53.652;8.516;2022-07-29T21:06:52;14.35;;;12.80;;
37877;SDS011;23715;53.652;8.516;2022-07-29T21:11:53;15.45;;;13.80;;
37877;SDS011;23715;53.652;8.516;2022-07-29T21:16:53;16.10;;;14.63;;
37877;SDS011;23715;53.652;8.516;2022-07-29T21:21:54;17.12;;;13.88;;
37877;SDS011;23715;53.652;8.516;2022-07-29T21:31:55;16.73;;;15.48;;
37877;SDS011;23715;53.652;8.516;2022-07-29T21:36:56;17.73;;;16.37;;
37877;SDS011;23715;53.652;8.516;2022-07-29T21:41:56;18.42;;;16.80;;
37877;SDS011;23715;53.652;8.516;2022-07-29T21:46:57;17.87;;;16.20;;
37877;SDS011;23715;53.652;8.516;2022-07-29T21:51:57;17.70;;;16.40;;
37877;SDS011;23715;53.652;8.516;2022-07-29T21:56:58;17.00;;;15.63;;
37877;SDS011;23715;53.652;8.516;2022-07-29T22:06:58;16.97;;;15.65;;
37877;SDS011;23715;53.652;8.516;2022-07-29T22:11:58;16.50;;;14.83;;
37877;SDS011;23715;53.652;8.516;2022-07-29T22:16:59;15.93;;;13.88;;
37877;SDS011;23715;53.652;8.516;2022-07-29T22:22:00;15.53;;;14.33;;
37877;SDS011;23715;53.652;8.516;2022-07-29T22:32:00;16.25;;;15.05;;
37877;SDS011;23715;53.652;8.516;2022-07-29T22:42:00;20.32;;;17.37;;
37877;SDS011;23715;53.652;8.516;2022-07-29T22:52:01;17.20;;;15.63;;
37877;SDS011;23715;53.652;8.516;2022-07-29T22:57:02;18.80;;;17.40;;
37877;SDS011;23715;53.652;8.516;2022-07-29T23:02:03;17.45;;;15.93;;
37877;SDS011;23715;53.652;8.516;2022-07-29T23:07:03;17.50;;;16.23;;
37877;SDS011;23715;53.652;8.516;2022-07-29T23:17:03;19.65;;;17.80;;
37877;SDS011;23715;53.652;8.516;2022-07-29T23:27:03;17.87;;;16.23;;
37877;SDS011;23715;53.652;8.516;2022-07-29T23:32:04;18.87;;;17.23;;
37877;SDS011;23715;53.652;8.516;2022-07-29T23:37:04;17.90;;;16.57;;
37877;SDS011;23715;53.652;8.516;2022-07-29T23:42:10;18.02;;;16.27;;
37877;SDS011;23715;53.652;8.516;2022-07-29T23:47:07;16.77;;;15.68;;
37877;SDS011;23715;53.652;8.516;2022-07-29T23:52:07;18.00;;;16.45;;
37877;SDS011;23715;53.652;8.516;2022-07-29T23:57:08;18.90;;;17.12;;
